x

Tanner Bank - 121nm West Of San Diego, Ca (46047) Wave Buoy

1:50 - Sat 27th Dec 2014 All times are PST. -8 hours from GMT.

  • Sig Wave height 5.6ft
  • Swell Direction
  • Peak Period 11s
  • Average Period 7s
  • Wind
    4mph, 7mph gusts
  • Sea Temp 63°f
  • Aire Temp 61°f
  • Sea Pressure 1025.1mb
  • Tanner Bank - 121nm West Of San Diego, Ca
  • Tanner Bank - 121nm West Of San Diego, Ca

More Historic Weather Station data

Upgrade to MSW Pro to gain access to the past 30 days of data for over 8000 Wavebouys and Weather Stations around the globe.

Join Pro

Comparision Forecast

View Surf forecast
   
sáb 12/27 1:50 5.5ft 11s 7s 4 7 mph 1025.1mb 63f 61f
12:50 5.5ft 11s 8s 4 7 mph 1025.5mb 63f 61f
11:50 6ft 11s 7s 4 7 mph 1026.2mb 63f 61f
10:50 6ft 13s 7s 9 13 mph 1026.7mb 63f 61f
9:50 6ft 10s 7s 11 16 mph 1026.2mb 63f 61f
8:50 6ft 11s 8s 13 16 mph 1025.4mb 63f 61f
7:50 6.5ft 10s 8s 9 13 mph 1024.9mb 63f 61f
6:50 6.5ft 11s 8s 7 11 mph 1024.1mb 63f 60f
5:50 7ft 13s 8s 7 11 mph 1023.5mb 63f 60f
4:50 8ft 11s 8s 7 9 mph 1023.2mb 63f 61f
3:50 6.5ft 12s 8s 11 13 mph 1022.9mb 63f 61f
2:50 7ft 11s 8s 7 11 mph 1022.5mb 63f 61f
1:50 8ft 11s 8s 13 16 mph 1022.1mb 63f 60f
12:50 8.5ft 10s 8s 13 18 mph 1022mb 62f 60f
vie 12/26 11:50 8ft 11s 8s 13 18 mph 1021.9mb 62f 60f
10:50 8ft 11s 8s 13 18 mph 1021.8mb 62f 60f
9:50 8ft 10s 8s 11 13 mph 1021.7mb 62f 60f
8:50 8.5ft 11s 8s 9 11 mph 1021.2mb 63f 59f
7:50 9ft 11s 8s 9 11 mph 1020.7mb 63f 59f
6:50 8.5ft 11s 8s 11 13 mph 1020.3mb 63f 59f
5:50 9ft 11s 8s 9 13 mph 1019.5mb 63f 60f
4:50 10ft 11s 8s 9 13 mph 1018.7mb 63f 60f
3:50 10ft 11s 8s 9 11 mph 1018.5mb 63f 60f
2:50 10ft 12s 8s 9 13 mph 1017.7mb 63f 60f
1:50 11ft 11s 8s 11 13 mph 1017.5mb 63f 60f
12:50 11ft 11s 8s 13 18 mph 1017.8mb 63f 60f
11:50 10ft 14s 8s 13 18 mph 1018mb 63f 60f
10:50 11ft 10s 8s 16 18 mph 1018.6mb 63f 60f
9:50 10.5ft 11s 8s 16 20 mph 1018.5mb 63f 60f
8:50 11ft 11s 8s 16 22 mph 1017.9mb 63f 60f
7:50 12ft 11s 8s 18 25 mph 1017.1mb 63f 60f
6:50 12.5ft 11s 8s 18 20 mph 1016.3mb 63f 60f
5:50 12.5ft 13s 8s 18 25 mph 1015.4mb 63f 59f
4:50 13ft 15s 8s 20 27 mph 1014.8mb 63f 60f
3:50 12.5ft 11s 8s 18 22 mph 1014.3mb 63f 59f
2:50 14.5ft 12s 8s 20 25 mph 1014.3mb 63f 59f
1:50 16.5ft 11s 9s 20 22 mph 1014.2mb 63f 59f
12:50 16ft 11s 8s 20 27 mph 1013.8mb 63f 58f
jue 12/25 11:50 15.5ft 12s 8s 27 31 mph 1013.7mb 63f 59f
10:50 15ft 11s 8s 27 34 mph 1014mb 63f 59f
9:50 14ft 11s 8s 29 36 mph 1014mb 63f 59f
8:50 16ft 13s 8s 29 36 mph 1013.6mb 63f 60f
7:50 16ft 12s 9s 31 36 mph 1013.3mb 63f 60f
6:50 15ft 12s 8s 27 36 mph 1013.2mb 63f 60f
5:50 14.5ft 11s 8s 27 31 mph 1012.7mb 63f 59f
4:50 16.5ft 12s 8s 27 31 mph 1012.1mb 63f 59f
3:50 15.5ft 12s 8s 27 34 mph 1011.8mb 63f 59f
2:50 16ft 12s 8s 27 34 mph 1011.4mb 63f 59f
1:50 17ft 11s 9s 31 38 mph 1011.1mb 63f 59f
12:50  -   -   -  31 40 mph 1011.6mb 63f 59f
11:50 18.5ft 10s 9s 31 38 mph 1011.9mb 63f 59f
10:50 18ft 11s 8s 36 45 mph 1012.1mb 63f 60f
9:50 16.5ft 10s 8s 34 43 mph 1012.7mb 63f 60f
8:50 17.5ft 10s 8s 34 40 mph 1012.1mb 63f 60f
7:50  -   -   -  34 43 mph 1011.8mb 63f 60f
6:50 16.5ft 9s 8s 31 38 mph 1011.3mb 63f 60f
5:50 14.5ft 9s 8s 31 38 mph 1010.9mb 63f 60f
4:50 14ft 8s 7s 34 38 mph 1010.6mb 63f 60f
3:50 14ft 9s 7s 34 43 mph 1011.2mb 64f 60f
2:50 13ft 8s 7s 29 36 mph 1011.7mb 64f 60f
1:50  -   -   -  31 40 mph 1012mb 64f 60f
12:50  -   -   -  31 36 mph 1011.7mb 64f 60f
mié 12/24 11:50 11.5ft 16s 7s 29 38 mph 1011.8mb 64f 61f
10:50 11ft 16s 7s 29 36 mph 1012.8mb 64f 62f
9:50 9.5ft 17s 7s 29 36 mph 1013.4mb 64f 62f
8:50  -   -   -  27 31 mph 1013.2mb 64f 62f
7:50 9ft 16s 8s 25 27 mph 1013.6mb 64f 62f
6:50 9ft 16s 8s 16 22 mph 1013.5mb 64f 61f
5:50 8.5ft 17s 8s 18 22 mph 1013.8mb 64f 62f
4:50 9ft 16s 8s 18 22 mph 1014.4mb 64f 62f
3:50 8ft 16s 9s 18 22 mph 1015mb 64f 62f
2:50 9ft 16s 10s 13 18 mph 1015mb 64f 61f
1:50 8.5ft 16s 10s 13 16 mph 1015.3mb 64f 61f
12:50 8ft 16s 10s 7 9 mph 1016mb 65f 60f
11:50 9.5ft 16s 11s 9 11 mph 1016.7mb 64f 60f
10:50 8ft 17s 10s 4 7 mph 1017.7mb 64f 61f
9:50 8.5ft 17s 10s 4 9 mph 1018mb 64f 63f
8:50 8ft 17s 10s 7 9 mph 1017.9mb 63f 63f
7:50 8.5ft 17s 11s  -  2 mph 1017.5mb 63f 64f
6:50 7.5ft 17s 10s  -  2 mph 1017.4mb 63f 63f
5:50 7.5ft 17s 10s 2
mph
1017.3mb 64f 63f
4:50 7.5ft 14s 10s  -  2 mph 1017mb 64f 63f
3:50 8ft 14s 10s 2 4 mph 1017.2mb 63f 63f
2:50 8ft 17s 10s 4 7 mph 1017.5mb 64f 63f
1:50 8.5ft 15s 10s 2 4 mph 1017.5mb 63f 63f
12:50 8ft 14s 9s 4 7 mph 1017.5mb 63f 63f
mar 12/23 11:50 8ft 13s 9s 2 4 mph 1018.2mb 64f 64f
10:50 8ft 13s 9s 4 7 mph 1018.3mb 64f 64f